createdAt,value
2022-07-27T00:00:55.845Z,0.70
2022-07-27T00:03:23.603Z,0.80
2022-07-27T00:05:51.211Z,0.80
2022-07-27T00:08:20.367Z,0.90
2022-07-27T00:10:47.818Z,0.90
2022-07-27T00:13:15.272Z,0.90
2022-07-27T00:15:43.225Z,1.17
2022-07-27T00:18:12.048Z,0.87
2022-07-27T00:20:41.217Z,1.07
2022-07-27T00:23:08.707Z,1.40
2022-07-27T00:25:36.151Z,1.10
2022-07-27T00:28:03.674Z,1.10
2022-07-27T00:30:31.066Z,1.07
2022-07-27T00:32:58.458Z,1.23
2022-07-27T00:35:27.349Z,1.50
2022-07-27T00:37:54.763Z,1.13
2022-07-27T00:40:22.138Z,1.40
2022-07-27T00:42:49.767Z,1.30
2022-07-27T00:45:17.193Z,1.20
2022-07-27T00:47:44.783Z,1.17
2022-07-27T00:50:12.417Z,1.20
2022-07-27T00:52:41.483Z,1.40
2022-07-27T00:55:09.391Z,1.10
2022-07-27T00:57:58.423Z,1.20
2022-07-27T01:00:24.421Z,1.20
2022-07-27T01:02:52.193Z,1.33
2022-07-27T01:05:20.554Z,1.17
2022-07-27T01:07:49.833Z,1.17
2022-07-27T01:10:17.621Z,1.10
2022-07-27T01:12:46.003Z,1.10
2022-07-27T01:15:13.406Z,1.07
2022-07-27T01:17:40.850Z,1.20
2022-07-27T01:20:08.705Z,1.10
2022-07-27T01:22:37.411Z,1.10
2022-07-27T01:25:05.327Z,1.00
2022-07-27T01:27:32.727Z,1.10
2022-07-27T01:30:00.124Z,1.03
2022-07-27T01:32:27.531Z,1.10
2022-07-27T01:34:54.907Z,1.30
2022-07-27T01:37:22.278Z,1.20
2022-07-27T01:39:50.991Z,1.00
2022-07-27T01:42:18.365Z,1.43
2022-07-27T01:44:45.748Z,1.00
2022-07-27T01:47:14.085Z,1.10
2022-07-27T01:49:42.330Z,1.83
2022-07-27T01:52:09.728Z,0.93
2022-07-27T01:54:37.183Z,1.10
2022-07-27T01:57:05.973Z,1.20
2022-07-27T01:59:33.342Z,1.40
2022-07-27T02:02:00.902Z,1.60
2022-07-27T02:04:28.519Z,1.23
2022-07-27T02:06:55.901Z,1.43
2022-07-27T02:09:25.803Z,1.60
2022-07-27T02:12:10.970Z,1.10
2022-07-27T02:14:39.670Z,1.20
2022-07-27T02:17:07.076Z,1.30
2022-07-27T02:19:34.471Z,1.03
2022-07-27T02:22:01.985Z,1.20
2022-07-27T02:24:29.369Z,1.20
2022-07-27T02:26:56.788Z,0.90
2022-07-27T02:29:24.164Z,1.43
2022-07-27T02:31:52.894Z,1.10
2022-07-27T02:34:20.262Z,1.30
2022-07-27T02:36:47.880Z,1.10
2022-07-27T02:39:15.378Z,1.30
2022-07-27T02:41:44.912Z,1.40
2022-07-27T02:44:14.507Z,1.73
2022-07-27T02:46:41.956Z,1.50
2022-07-27T02:49:11.118Z,1.47
2022-07-27T02:51:39.482Z,1.60
2022-07-27T02:54:08.467Z,1.30
2022-07-27T02:56:35.854Z,1.20
2022-07-27T02:59:03.227Z,1.30
2022-07-27T03:01:30.679Z,1.40
2022-07-27T03:03:58.106Z,1.50
2022-07-27T03:06:26.920Z,1.40
2022-07-27T03:08:54.303Z,2.07
2022-07-27T03:11:21.682Z,1.30
2022-07-27T03:13:49.108Z,1.10
2022-07-27T03:16:16.560Z,1.20
2022-07-27T03:18:44.263Z,1.30
2022-07-27T03:21:11.634Z,0.97
2022-07-27T03:23:40.440Z,1.20
2022-07-27T03:26:08.132Z,1.20
2022-07-27T03:28:35.515Z,0.80
2022-07-27T03:31:03.789Z,1.10
2022-07-27T03:33:31.227Z,1.00
2022-07-27T03:35:58.607Z,1.00
2022-07-27T03:38:25.982Z,1.00
2022-07-27T03:40:54.683Z,1.27
2022-07-27T03:43:22.085Z,1.00
2022-07-27T03:45:49.480Z,0.90
2022-07-27T03:48:16.897Z,1.10
2022-07-27T03:50:44.267Z,1.20
2022-07-27T03:53:12.006Z,1.20
2022-07-27T03:55:39.388Z,0.97
2022-07-27T03:58:08.095Z,0.80
2022-07-27T04:00:35.484Z,1.00
2022-07-27T04:03:02.893Z,0.97
2022-07-27T04:05:30.278Z,1.07
2022-07-27T04:07:57.679Z,0.87
2022-07-27T04:10:29.983Z,0.97
2022-07-27T04:12:59.218Z,0.80
2022-07-27T04:15:29.057Z,1.10
2022-07-27T04:17:57.691Z,1.10
2022-07-27T04:20:25.371Z,1.00
2022-07-27T04:22:52.746Z,0.90
2022-07-27T04:25:20.243Z,1.03
2022-07-27T04:27:47.618Z,0.93
2022-07-27T04:30:15.190Z,0.90
2022-07-27T04:32:43.921Z,0.73
2022-07-27T04:35:11.727Z,1.07
2022-07-27T04:37:39.120Z,0.90
2022-07-27T04:40:07.778Z,0.63
2022-07-27T04:42:35.199Z,1.07
2022-07-27T04:45:02.628Z,0.90
2022-07-27T04:47:30.022Z,1.00
2022-07-27T04:49:58.749Z,0.90
2022-07-27T04:52:26.714Z,1.10
2022-07-27T04:54:55.225Z,0.70
2022-07-27T04:57:23.250Z,1.07
2022-07-27T04:59:50.732Z,1.10
2022-07-27T05:02:18.317Z,1.00
2022-07-27T05:04:45.983Z,1.00
2022-07-27T05:07:14.667Z,0.90
2022-07-27T05:09:42.219Z,1.00
2022-07-27T05:12:09.889Z,1.10
2022-07-27T05:14:37.300Z,0.80
2022-07-27T05:17:05.720Z,1.17
2022-07-27T05:19:39.949Z,0.70
2022-07-27T05:22:08.324Z,0.97
2022-07-27T05:24:37.185Z,0.90
2022-07-27T05:27:05.008Z,1.07
2022-07-27T05:29:32.402Z,1.13
2022-07-27T05:31:59.830Z,1.00
2022-07-27T05:34:27.374Z,1.00
2022-07-27T05:36:54.755Z,0.83
2022-07-27T05:39:22.731Z,0.87
2022-07-27T05:41:51.467Z,0.87
2022-07-27T05:44:18.859Z,1.17
2022-07-27T05:46:46.230Z,0.80
2022-07-27T05:49:14.248Z,1.00
2022-07-27T05:51:41.841Z,1.00
2022-07-27T05:54:09.275Z,0.80
2022-07-27T05:56:38.547Z,0.90
2022-07-27T05:59:07.642Z,0.70
2022-07-27T06:01:35.162Z,0.80
2022-07-27T06:04:02.680Z,0.93
2022-07-27T06:06:47.985Z,0.90
2022-07-27T06:09:15.586Z,1.00
2022-07-27T06:11:43.205Z,0.80
2022-07-27T06:14:11.959Z,0.70
2022-07-27T06:16:39.496Z,0.93
2022-07-27T06:19:07.043Z,1.20
2022-07-27T06:21:34.413Z,1.03
2022-07-27T06:24:01.801Z,0.77
2022-07-27T06:26:29.352Z,0.80
2022-07-27T06:28:58.956Z,1.00
2022-07-27T06:31:28.414Z,0.90
2022-07-27T06:34:02.863Z,1.00
2022-07-27T06:36:30.498Z,0.97
2022-07-27T06:38:57.874Z,1.03
2022-07-27T06:41:25.247Z,0.80
2022-07-27T06:43:52.647Z,0.90
2022-07-27T06:46:20.318Z,0.90
2022-07-27T06:48:49.132Z,1.13
2022-07-27T06:51:16.753Z,0.90
2022-07-27T06:53:44.706Z,0.97
2022-07-27T06:56:12.189Z,1.07
2022-07-27T06:58:39.571Z,0.93
2022-07-27T07:01:07.162Z,0.77
2022-07-27T07:03:34.634Z,0.93
2022-07-27T07:06:03.391Z,1.10
2022-07-27T07:08:30.834Z,0.70
2022-07-27T07:10:58.233Z,0.80
2022-07-27T07:13:25.886Z,0.93
2022-07-27T07:15:53.315Z,0.80
2022-07-27T07:18:20.823Z,1.00
2022-07-27T07:20:48.202Z,0.83
2022-07-27T07:23:16.919Z,0.83
2022-07-27T07:25:44.320Z,1.00
2022-07-27T07:28:11.716Z,1.00
2022-07-27T07:30:39.147Z,0.67
2022-07-27T07:33:06.533Z,1.03
2022-07-27T07:35:34.000Z,1.10
2022-07-27T07:38:01.366Z,0.83
2022-07-27T07:40:43.081Z,0.77
2022-07-27T07:43:12.662Z,0.77
2022-07-27T07:45:51.611Z,0.50
2022-07-27T07:48:20.035Z,0.90
2022-07-27T07:50:52.326Z,0.80
2022-07-27T07:53:21.330Z,0.80
2022-07-27T07:55:50.654Z,0.70
2022-07-27T07:58:18.163Z,0.80
2022-07-27T08:00:45.536Z,0.80
2022-07-27T08:03:13.087Z,0.70
2022-07-27T08:05:40.521Z,0.70
2022-07-27T08:08:07.905Z,0.80
2022-07-27T08:10:35.312Z,0.80
2022-07-27T08:13:04.250Z,0.80
2022-07-27T08:15:35.730Z,0.73
2022-07-27T08:18:03.939Z,0.60
2022-07-27T08:20:31.501Z,0.97
2022-07-27T08:22:58.866Z,0.70
2022-07-27T08:25:26.241Z,0.87
2022-07-27T08:27:56.071Z,0.60
2022-07-27T08:30:25.949Z,0.60
2022-07-27T08:32:54.956Z,0.60
2022-07-27T08:35:22.940Z,0.57
2022-07-27T08:37:50.744Z,0.53
2022-07-27T08:43:08.737Z,0.60
2022-07-27T08:45:38.157Z,0.80
2022-07-27T08:48:05.965Z,0.57
2022-07-27T08:50:34.919Z,0.60
2022-07-27T08:53:04.430Z,0.50
2022-07-27T08:55:32.622Z,0.60
2022-07-27T08:58:03.064Z,0.83
2022-07-27T09:00:31.491Z,0.60
2022-07-27T09:03:00.471Z,0.67
2022-07-27T09:05:36.297Z,0.90
2022-07-27T09:08:11.474Z,0.87
2022-07-27T09:10:39.210Z,0.73
2022-07-27T09:13:23.343Z,0.90
2022-07-27T09:16:16.930Z,0.50
2022-07-27T09:18:41.314Z,0.50
2022-07-27T09:21:10.260Z,0.60
2022-07-27T09:23:38.015Z,0.97
2022-07-27T09:26:30.007Z,0.90
2022-07-27T09:28:59.504Z,0.80
2022-07-27T09:31:27.054Z,0.90
2022-07-27T09:33:57.822Z,0.90
2022-07-27T09:36:28.025Z,0.90
2022-07-27T09:39:02.007Z,1.00
2022-07-27T09:41:39.622Z,0.90
2022-07-27T09:46:54.790Z,0.90
2022-07-27T09:49:30.772Z,1.20
2022-07-27T09:52:01.138Z,0.90
2022-07-27T09:54:29.364Z,3.40
2022-07-27T09:57:01.715Z,1.30
2022-07-27T09:59:29.590Z,1.30
2022-07-27T10:01:57.578Z,1.10
2022-07-27T10:04:26.360Z,1.30
2022-07-27T10:07:04.562Z,1.33
2022-07-27T10:09:33.395Z,1.10
2022-07-27T10:12:01.862Z,0.90
2022-07-27T10:14:29.370Z,1.13
2022-07-27T10:16:57.718Z,1.10
2022-07-27T10:19:28.944Z,0.90
2022-07-27T10:21:57.660Z,1.40
2022-07-27T10:24:27.025Z,1.37
2022-07-27T10:26:54.505Z,1.13
2022-07-27T10:29:22.845Z,1.40
2022-07-27T10:32:00.151Z,1.37
2022-07-27T10:34:34.650Z,1.30
2022-07-27T10:37:13.792Z,1.50
2022-07-27T10:39:43.118Z,1.50
2022-07-27T10:42:24.447Z,1.40
2022-07-27T10:44:55.787Z,1.40
2022-07-27T10:47:28.903Z,1.10
2022-07-27T10:50:20.085Z,1.00
2022-07-27T10:52:49.775Z,1.30
2022-07-27T10:55:36.507Z,1.00
2022-07-27T10:58:38.786Z,0.70
2022-07-27T11:01:07.624Z,0.97
2022-07-27T11:03:39.551Z,0.80
2022-07-27T11:06:31.954Z,0.70
2022-07-27T11:11:49.379Z,1.00
2022-07-27T11:14:18.840Z,0.70
2022-07-27T11:16:55.608Z,0.80
2022-07-27T11:19:24.640Z,0.80
2022-07-27T11:21:53.894Z,0.70
2022-07-27T11:24:23.439Z,0.77
2022-07-27T11:26:51.799Z,0.70
2022-07-27T11:29:20.106Z,0.80
2022-07-27T11:31:56.569Z,0.70
2022-07-27T11:34:28.027Z,0.70
2022-07-27T11:36:56.832Z,0.50
2022-07-27T11:42:20.782Z,0.63
2022-07-27T11:44:48.786Z,0.70
2022-07-27T11:47:18.782Z,0.77
2022-07-27T11:49:46.542Z,0.50
2022-07-27T11:52:17.467Z,0.83
2022-07-27T11:54:44.878Z,0.83
2022-07-27T11:57:15.311Z,0.87
2022-07-27T11:59:43.421Z,0.93
2022-07-27T12:02:13.455Z,0.73
2022-07-27T12:04:42.929Z,1.03
2022-07-27T12:07:11.683Z,0.90
2022-07-27T12:09:44.220Z,0.73
2022-07-27T12:12:13.881Z,0.80
2022-07-27T12:14:42.118Z,0.90
2022-07-27T12:17:10.293Z,0.90
2022-07-27T12:19:37.733Z,0.90
2022-07-27T12:22:06.451Z,0.90
2022-07-27T12:24:35.049Z,0.80
2022-07-27T12:27:06.993Z,1.00
2022-07-27T12:29:34.968Z,0.50
2022-07-27T12:32:04.411Z,0.57
2022-07-27T12:34:35.941Z,0.87
2022-07-27T12:37:03.351Z,0.53
2022-07-27T12:39:32.071Z,0.50
2022-07-27T12:42:06.924Z,0.70
2022-07-27T12:44:34.950Z,0.50
2022-07-27T12:47:27.157Z,0.60
2022-07-27T12:50:02.558Z,0.50
2022-07-27T12:52:29.998Z,0.77
2022-07-27T12:54:58.762Z,0.73
2022-07-27T12:57:54.055Z,0.63
2022-07-27T13:00:15.541Z,0.60
2022-07-27T13:02:43.356Z,0.67
2022-07-27T13:05:11.797Z,0.50
2022-07-27T13:07:40.226Z,0.50
2022-07-27T13:10:09.680Z,0.77
2022-07-27T13:12:37.603Z,0.50
2022-07-27T13:15:05.502Z,0.63
2022-07-27T13:17:37.046Z,0.47
2022-07-27T13:20:05.380Z,0.70
2022-07-27T13:22:32.802Z,0.67
2022-07-27T13:25:00.191Z,0.80
2022-07-27T13:27:29.439Z,0.60
2022-07-27T13:29:56.931Z,0.83
2022-07-27T13:32:24.377Z,0.70
2022-07-27T13:34:51.828Z,0.80
2022-07-27T13:37:19.226Z,0.97
2022-07-27T13:39:47.311Z,0.77
2022-07-27T13:42:15.234Z,0.63
2022-07-27T13:45:02.542Z,0.53
2022-07-27T13:47:31.530Z,0.70
2022-07-27T13:49:58.931Z,0.60
2022-07-27T13:52:26.338Z,0.57
2022-07-27T13:54:53.745Z,0.70
2022-07-27T13:57:21.124Z,0.80
2022-07-27T13:59:49.823Z,0.67
2022-07-27T14:02:20.543Z,0.70
2022-07-27T14:04:50.869Z,0.70
2022-07-27T14:07:18.270Z,0.50
2022-07-27T14:10:03.347Z,0.70
2022-07-27T14:12:30.729Z,0.90
2022-07-27T14:14:59.555Z,0.90
2022-07-27T14:17:27.103Z,0.80
2022-07-27T14:19:54.478Z,0.90
2022-07-27T14:22:21.860Z,0.83
2022-07-27T14:24:49.241Z,1.20
2022-07-27T14:27:16.602Z,1.20
2022-07-27T14:29:43.993Z,0.80
2022-07-27T14:32:12.696Z,1.47
2022-07-27T14:34:40.519Z,1.10
2022-07-27T14:37:07.885Z,1.10
2022-07-27T14:39:35.259Z,1.40
2022-07-27T14:42:02.973Z,1.53
2022-07-27T14:44:31.024Z,1.20
2022-07-27T14:46:58.979Z,1.40
2022-07-27T14:49:27.905Z,1.27
2022-07-27T14:51:55.351Z,1.23
2022-07-27T14:54:22.740Z,1.00
2022-07-27T14:56:50.266Z,1.23
2022-07-27T14:59:17.776Z,0.70
2022-07-27T15:01:45.283Z,0.70
2022-07-27T15:04:12.796Z,0.70
2022-07-27T15:06:41.490Z,0.70
2022-07-27T15:09:08.970Z,0.70
2022-07-27T15:11:37.707Z,0.60
2022-07-27T15:14:05.434Z,0.80
2022-07-27T15:16:33.040Z,0.80
2022-07-27T15:19:00.575Z,0.70
2022-07-27T15:21:28.113Z,0.50
2022-07-27T15:23:57.235Z,0.50
2022-07-27T15:26:24.806Z,0.60
2022-07-27T15:28:52.190Z,0.70
2022-07-27T15:31:19.680Z,0.70
2022-07-27T15:33:47.149Z,0.60
2022-07-27T15:36:32.383Z,0.60
2022-07-27T15:39:02.751Z,0.80
2022-07-27T15:41:33.051Z,0.60
2022-07-27T15:44:01.124Z,0.63
2022-07-27T15:46:28.609Z,0.63
2022-07-27T15:48:56.510Z,0.63
2022-07-27T15:51:24.298Z,0.50
2022-07-27T15:53:52.094Z,0.70
2022-07-27T15:56:20.801Z,0.70
2022-07-27T15:58:48.177Z,0.60
2022-07-27T16:01:15.639Z,0.53
2022-07-27T16:03:43.102Z,0.70
2022-07-27T16:06:11.045Z,0.90
2022-07-27T16:08:38.419Z,0.77
2022-07-27T16:11:05.921Z,0.40
2022-07-27T16:13:36.906Z,0.60
2022-07-27T16:16:24.851Z,0.70
2022-07-27T16:18:53.525Z,0.57
2022-07-27T16:21:22.498Z,0.93
2022-07-27T16:23:50.342Z,0.50
2022-07-27T16:26:17.717Z,0.70
2022-07-27T16:28:47.946Z,0.70
2022-07-27T16:31:16.290Z,0.50
2022-07-27T16:33:45.016Z,0.50
2022-07-27T16:36:12.423Z,0.70
2022-07-27T16:38:49.179Z,0.70
2022-07-27T16:41:18.972Z,0.80
2022-07-27T16:43:47.755Z,0.43
2022-07-27T16:46:15.178Z,0.70
2022-07-27T16:48:43.410Z,0.97
2022-07-27T16:51:12.051Z,0.70
2022-07-27T16:53:39.714Z,0.60
2022-07-27T16:56:08.825Z,0.70
2022-07-27T16:58:36.473Z,0.70
2022-07-27T17:01:05.675Z,0.50
2022-07-27T17:03:33.134Z,0.60
2022-07-27T17:06:06.134Z,0.47
2022-07-27T17:08:34.111Z,0.50
2022-07-27T17:11:02.455Z,0.57
2022-07-27T17:13:33.400Z,0.50
2022-07-27T17:16:01.938Z,0.63
2022-07-27T17:18:35.514Z,0.70
2022-07-27T17:21:07.344Z,0.40
2022-07-27T17:23:37.932Z,0.50
2022-07-27T17:26:06.347Z,0.43
2022-07-27T17:28:36.553Z,0.70
2022-07-27T17:31:04.876Z,0.60
2022-07-27T17:33:33.711Z,0.70
2022-07-27T17:36:01.111Z,0.57
2022-07-27T17:38:28.687Z,0.50
2022-07-27T17:40:56.131Z,0.50
2022-07-27T17:43:23.527Z,0.47
2022-07-27T17:45:51.992Z,0.80
2022-07-27T17:48:20.482Z,0.50
2022-07-27T17:50:49.441Z,0.60
2022-07-27T17:53:16.863Z,0.50
2022-07-27T17:55:44.233Z,0.80
2022-07-27T17:58:11.675Z,0.60
2022-07-27T18:00:39.484Z,0.57
2022-07-27T18:03:06.938Z,0.70
2022-07-27T18:05:34.508Z,0.60
2022-07-27T18:08:03.226Z,0.67
2022-07-27T18:10:33.169Z,0.50
2022-07-27T18:13:04.677Z,0.70
2022-07-27T18:15:51.189Z,0.40
2022-07-27T18:18:19.551Z,0.80
2022-07-27T18:20:48.227Z,0.50
2022-07-27T18:23:17.277Z,0.50
2022-07-27T18:25:45.106Z,0.73
2022-07-27T18:28:13.934Z,0.43
2022-07-27T18:30:41.610Z,0.60
2022-07-27T18:33:09.060Z,0.60
2022-07-27T18:35:36.530Z,0.63
2022-07-27T18:38:04.596Z,0.57
2022-07-27T18:40:33.311Z,0.47
2022-07-27T18:43:00.714Z,0.50
2022-07-27T18:45:34.540Z,0.77
2022-07-27T18:48:02.419Z,0.47
2022-07-27T18:50:31.052Z,0.53
2022-07-27T18:52:59.967Z,0.60
2022-07-27T18:55:27.606Z,0.87
2022-07-27T18:57:56.355Z,0.50
2022-07-27T19:00:24.220Z,0.60
2022-07-27T19:02:56.600Z,0.53
2022-07-27T19:05:32.311Z,0.50
2022-07-27T19:08:11.285Z,0.63
2022-07-27T19:10:40.451Z,0.60
2022-07-27T19:13:09.225Z,0.50
2022-07-27T19:15:37.104Z,0.60
2022-07-27T19:18:04.741Z,0.40
2022-07-27T19:20:32.114Z,0.50
2022-07-27T19:23:00.643Z,0.63
2022-07-27T19:25:30.203Z,0.50
2022-07-27T19:27:57.792Z,0.60
2022-07-27T19:30:26.815Z,0.70
2022-07-27T19:32:54.217Z,0.50
2022-07-27T19:35:21.604Z,0.70
2022-07-27T19:37:49.007Z,0.57
2022-07-27T19:43:03.876Z,0.60
2022-07-27T19:45:32.616Z,0.70
2022-07-27T19:48:01.451Z,0.87
2022-07-27T19:50:28.846Z,0.70
2022-07-27T19:52:56.272Z,0.70
2022-07-27T19:55:23.661Z,0.77
2022-07-27T19:57:51.054Z,0.47
2022-07-27T20:00:18.531Z,0.53
2022-07-27T20:02:48.238Z,0.60
2022-07-27T20:05:15.834Z,0.60
2022-07-27T20:07:43.338Z,0.70
2022-07-27T20:10:11.037Z,0.50
2022-07-27T20:12:38.439Z,0.60
2022-07-27T20:15:06.535Z,0.70
2022-07-27T20:17:37.008Z,0.80
2022-07-27T20:20:06.701Z,0.60
2022-07-27T20:22:34.107Z,0.67
2022-07-27T20:25:02.289Z,0.80
2022-07-27T20:27:29.709Z,0.60
2022-07-27T20:29:57.166Z,0.70
2022-07-27T20:32:24.575Z,0.50
2022-07-27T20:34:51.986Z,0.50
2022-07-27T20:37:20.693Z,0.70
2022-07-27T20:39:48.117Z,0.53
2022-07-27T20:42:15.494Z,0.60
2022-07-27T20:44:43.413Z,0.77
2022-07-27T20:47:12.171Z,0.60
2022-07-27T20:49:39.582Z,0.60
2022-07-27T20:52:07.581Z,0.80
2022-07-27T20:54:36.575Z,0.60
2022-07-27T20:57:03.957Z,0.87
2022-07-27T20:59:32.554Z,0.77
2022-07-27T21:02:00.436Z,0.60
2022-07-27T21:04:28.168Z,0.70
2022-07-27T21:06:55.552Z,0.60
2022-07-27T21:09:22.957Z,0.70
2022-07-27T21:11:52.134Z,0.70
2022-07-27T21:14:19.560Z,0.73
2022-07-27T21:16:47.016Z,0.80
2022-07-27T21:19:14.793Z,0.67
2022-07-27T21:21:43.176Z,0.80
2022-07-27T21:24:17.361Z,0.70
2022-07-27T21:26:46.335Z,0.83
2022-07-27T21:29:17.915Z,0.70
2022-07-27T21:31:46.492Z,0.63
2022-07-27T21:34:15.496Z,0.70
2022-07-27T21:36:43.801Z,0.80
2022-07-27T21:39:11.193Z,0.77
2022-07-27T21:41:39.402Z,1.10
2022-07-27T21:44:06.871Z,0.90
2022-07-27T21:46:35.601Z,1.00
2022-07-27T21:49:03.392Z,0.90
2022-07-27T21:51:31.102Z,0.77
2022-07-27T21:53:58.485Z,0.60
2022-07-27T21:56:25.871Z,1.00
2022-07-27T21:58:53.273Z,0.80
2022-07-27T22:01:20.822Z,0.70
2022-07-27T22:03:49.715Z,0.93
2022-07-27T22:06:17.394Z,0.60
2022-07-27T22:08:46.081Z,0.73
2022-07-27T22:11:14.076Z,0.90
2022-07-27T22:13:41.655Z,0.60
2022-07-27T22:16:12.435Z,0.60
2022-07-27T22:18:39.991Z,0.70
2022-07-27T22:21:08.750Z,0.60
2022-07-27T22:23:36.202Z,0.80
2022-07-27T22:26:03.586Z,0.60
2022-07-27T22:28:31.042Z,0.90
2022-07-27T22:31:19.762Z,0.87
2022-07-27T22:33:46.017Z,0.90
2022-07-27T22:36:15.328Z,0.70
2022-07-27T22:38:43.759Z,0.87
2022-07-27T22:41:11.234Z,0.80
2022-07-27T22:43:38.847Z,0.60
2022-07-27T22:46:07.165Z,1.00
2022-07-27T22:48:35.065Z,0.73
2022-07-27T22:51:02.986Z,0.60
2022-07-27T22:53:31.979Z,0.70
2022-07-27T22:55:59.379Z,0.70
2022-07-27T22:58:26.772Z,0.67
2022-07-27T23:00:59.102Z,0.70
2022-07-27T23:03:27.157Z,0.60
2022-07-27T23:05:54.626Z,0.60
2022-07-27T23:08:22.028Z,0.60
2022-07-27T23:10:50.776Z,0.67
2022-07-27T23:13:19.013Z,0.90
2022-07-27T23:15:47.745Z,0.80
2022-07-27T23:18:16.555Z,0.70
2022-07-27T23:20:44.360Z,0.73
2022-07-27T23:23:16.362Z,0.70
2022-07-27T23:25:44.330Z,0.80
2022-07-27T23:28:13.326Z,0.67
2022-07-27T23:30:40.724Z,0.90
2022-07-27T23:33:08.129Z,0.63
2022-07-27T23:35:35.943Z,0.73
2022-07-27T23:38:03.332Z,0.70
2022-07-27T23:40:30.741Z,0.80
2022-07-27T23:42:58.438Z,0.67
2022-07-27T23:45:27.411Z,0.67
2022-07-27T23:47:55.151Z,0.80
2022-07-27T23:50:23.018Z,0.80
2022-07-27T23:52:50.537Z,0.60
2022-07-27T23:55:17.974Z,0.60
2022-07-27T23:57:45.377Z,0.80
